Time;durP1;ratioP1;P1;durP2;ratioP2;P2;SDS_P1;SDS_P2;PMS_P1;PMS_P2;Temp;Humidity;BMP_temperature;BMP_pressure;BME280_temperature;BME280_humidity;BME280_pressure;Samples;Min_cycle;Max_cycle;Signal;HPM_P1;HPM_P2
2024/03/24 00:01:09;;;;;;;2.47;2.27;;;4.40;80.40;;;3.23;84.15;97232.44;5000586;28;20497;-77
2024/03/24 00:03:35;;;;;;;2.90;2.20;;;4.40;80.40;;;3.30;83.68;97236.03;5005381;28;20519;-77
2024/03/24 00:06:03;;;;;;;2.77;2.47;;;4.40;80.20;;;3.39;82.63;97237.56;5000000;28;20476;-81
2024/03/24 00:08:30;;;;;;;3.30;2.53;;;4.50;80.00;;;3.36;83.26;97221.91;4996283;28;20465;-79
2024/03/24 00:10:59;;;;;;;2.70;2.47;;;4.50;80.10;;;3.42;82.91;97230.22;5000086;28;20554;-79
2024/03/24 00:13:25;;;;;;;3.10;2.20;;;4.50;79.90;;;3.50;83.91;97224.75;5000395;28;20482;-73
2024/03/24 00:15:53;;;;;;;2.70;2.50;;;4.50;80.20;;;3.56;82.70;97225.81;5004423;28;20489;-77
2024/03/24 00:18:19;;;;;;;5.60;3.00;;;4.60;79.80;;;3.45;83.40;97224.50;5012687;28;20483;-80
2024/03/24 00:20:46;;;;;;;4.83;2.53;;;4.60;79.90;;;3.31;83.31;97202.97;5041341;28;20897;-79
2024/03/24 00:23:13;;;;;;;2.70;2.30;;;4.50;79.90;;;3.45;83.86;97224.50;5041667;28;20484;-77
2024/03/24 00:25:40;;;;;;;3.90;2.43;;;4.50;79.80;;;3.54;82.19;97212.66;5012066;28;21057;-75
2024/03/24 00:28:07;;;;;;;4.37;2.90;;;4.60;79.70;;;3.37;83.49;97212.88;5005031;28;20471;-80
2024/03/24 00:30:35;;;;;;;2.60;2.40;;;4.50;79.70;;;3.25;84.39;97209.91;5011917;28;20997;-83
2024/03/24 00:33:01;;;;;;;3.17;2.87;;;4.40;79.90;;;3.27;84.16;97201.72;5034114;28;20481;-80
2024/03/24 00:35:28;;;;;;;2.57;2.37;;;4.40;80.00;;;3.35;83.42;97198.91;5000507;28;20515;-77
2024/03/24 00:37:56;;;;;;;3.93;3.53;;;4.40;79.70;;;3.36;82.91;97197.88;5005047;28;20475;-78
2024/03/24 00:40:24;;;;;;;3.87;2.47;;;4.40;79.70;;;3.40;82.99;97201.81;5020701;28;20485;-77
2024/03/24 00:42:50;;;;;;;4.50;2.10;;;4.50;79.70;;;3.38;82.71;97201.19;5011972;28;20483;-81
2024/03/24 00:45:20;;;;;;;2.80;2.43;;;4.50;79.60;;;3.51;81.90;97191.66;5002761;28;20489;-80
2024/03/24 00:47:46;;;;;;;3.93;2.10;;;4.50;79.30;;;2.98;81.19;97104.69;5002175;28;20488;-78
2024/03/24 00:50:16;;;;;;;2.97;2.03;;;4.60;79.10;;;2.86;81.85;97104.34;4998802;28;20502;-79
2024/03/24 00:52:43;;;;;;;3.97;2.37;;;4.50;78.90;;;3.38;82.96;97181.69;5014845;28;20652;-80
2024/03/24 00:55:11;;;;;;;3.97;2.43;;;4.40;79.20;;;3.50;82.00;97174.00;5010618;28;20897;-80
2024/03/24 00:57:37;;;;;;;3.20;1.93;;;4.50;79.20;;;3.46;81.26;97167.38;5000542;28;21466;-81
2024/03/24 01:00:07;;;;;;;3.17;2.50;;;4.50;78.90;;;3.35;81.44;97168.72;5026936;28;20487;-80
2024/03/24 01:02:34;;;;;;;5.50;3.00;;;4.40;78.80;;;3.10;82.66;97142.38;5002079;28;20521;-77
2024/03/24 01:05:02;;;;;;;2.70;2.37;;;4.40;78.80;;;2.79;81.85;97076.78;4996646;28;21054;-80
2024/03/24 01:07:29;;;;;;;3.03;2.73;;;4.40;79.10;;;3.30;82.31;97158.59;5011819;28;20496;-79
2024/03/24 01:09:56;;;;;;;2.67;2.47;;;4.40;79.00;;;3.36;82.36;97157.84;4995691;28;21349;-78
2024/03/24 01:12:24;;;;;;;3.20;2.90;;;4.40;79.10;;;3.43;81.64;97157.09;5018695;28;20597;-82
2024/03/24 01:14:51;;;;;;;6.50;2.67;;;4.50;79.20;;;3.39;82.10;97146.75;5008584;28;20477;-80
2024/03/24 01:17:17;;;;;;;6.23;2.40;;;4.40;79.00;;;3.44;81.62;97153.41;5002401;28;20531;-77
2024/03/24 01:19:46;;;;;;;2.67;2.20;;;4.40;79.00;;;3.54;81.22;97143.19;5018457;28;20488;-80
2024/03/24 01:22:12;;;;;;;2.60;2.10;;;4.50;79.30;;;3.50;81.90;97141.94;4999660;28;20491;-78
2024/03/24 01:24:42;;;;;;;5.40;2.20;;;4.50;79.20;;;3.09;81.25;97072.13;4999912;28;20472;-78
2024/03/24 01:27:08;;;;;;;6.37;2.87;;;4.60;79.20;;;3.42;82.30;97142.09;5014605;28;20470;-78
2024/03/24 01:29:35;;;;;;;3.37;2.80;;;4.50;79.00;;;3.46;82.35;97140.69;5001931;28;20473;-81
2024/03/24 01:32:02;;;;;;;3.77;2.50;;;4.50;79.00;;;3.47;81.06;97139.66;4999032;28;21004;-77
2024/03/24 01:34:30;;;;;;;3.20;2.40;;;4.50;78.60;;;2.97;81.88;97057.66;4994985;28;21051;-81
2024/03/24 01:36:59;;;;;;;4.70;2.50;;;4.60;78.90;;;3.52;81.08;97124.72;4998053;28;20472;-79
2024/03/24 01:39:27;;;;;;;2.10;1.97;;;4.50;78.80;;;3.47;81.29;97126.31;4988853;28;21004;-77
2024/03/24 01:41:53;;;;;;;8.50;2.60;;;4.50;78.80;;;3.46;81.37;97113.97;4997993;28;20540;-80
2024/03/24 01:44:20;;;;;;;4.67;2.30;;;4.50;78.70;;;2.95;81.93;97033.84;5021472;28;20481;-79
2024/03/24 01:46:46;;;;;;;3.60;2.57;;;4.50;78.80;;;3.41;81.44;97106.53;5009243;28;20893;-77
2024/03/24 01:49:13;;;;;;;3.23;2.70;;;4.50;78.80;;;3.57;81.86;97102.78;5000274;28;20485;-77
2024/03/24 01:51:41;;;;;;;5.23;2.10;;;4.50;78.90;;;3.50;82.01;97094.69;5010703;28;21236;-79
2024/03/24 01:54:11;;;;;;;2.93;2.27;;;4.60;78.80;;;3.54;81.26;97081.75;4990222;28;20492;-79
2024/03/24 01:56:38;;;;;;;2.47;2.27;;;4.60;78.80;;;3.52;80.90;97084.66;4999085;28;20817;-80
2024/03/24 01:59:05;;;;;;;9.93;2.10;;;4.60;78.40;;;3.53;80.63;97078.28;4997231;28;20683;-81
2024/03/24 02:01:32;;;;;;;3.13;2.50;;;4.60;78.50;;;3.56;81.19;97082.38;4990068;28;20889;-79
2024/03/24 02:03:59;;;;;;;4.37;2.23;;;4.60;78.40;;;3.45;80.82;97070.41;5001452;28;20476;-75
2024/03/24 02:06:26;;;;;;;5.40;2.37;;;4.60;78.40;;;3.34;81.02;97074.41;5009297;28;21002;-79
2024/03/24 02:08:54;;;;;;;2.83;1.90;;;4.50;78.40;;;3.45;81.98;97080.28;5015389;28;20480;-79
2024/03/24 02:11:21;;;;;;;2.93;1.80;;;4.50;78.60;;;3.58;80.62;97063.50;4995030;28;20546;-75
2024/03/24 02:13:49;;;;;;;2.90;2.07;;;4.60;78.60;;;3.57;81.83;97072.53;5028439;28;20481;-76
2024/03/24 02:16:15;;;;;;;3.23;2.03;;;4.60;78.60;;;3.58;81.11;97061.69;5029300;28;21018;-74
2024/03/24 02:18:42;;;;;;;3.30;2.67;;;4.60;78.60;;;3.64;79.99;97062.72;4993692;28;20484;-78
2024/03/24 02:21:08;;;;;;;4.97;2.53;;;4.60;78.50;;;3.58;81.46;97058.16;4996279;28;20489;-79
2024/03/24 02:23:37;;;;;;;3.70;2.50;;;4.60;78.60;;;3.47;81.37;97041.66;4996780;28;20575;-79
2024/03/24 02:26:04;;;;;;;2.83;2.60;;;4.60;78.60;;;3.50;81.20;97045.78;4997035;28;20488;-78
2024/03/24 02:28:31;;;;;;;3.00;2.57;;;4.70;78.60;;;3.47;81.99;97035.50;5025618;28;20463;-79
2024/03/24 02:30:58;;;;;;;3.47;2.40;;;4.60;78.70;;;3.44;81.59;97041.22;5008281;28;20489;-77
2024/03/24 02:33:26;;;;;;;3.20;2.27;;;4.60;78.50;;;2.89;81.89;96964.41;5012724;28;20479;-74
2024/03/24 02:35:52;;;;;;;2.33;2.13;;;4.50;78.50;;;3.50;82.12;97037.78;5047069;28;20481;-77
2024/03/24 02:38:20;;;;;;;2.37;2.17;;;4.60;78.80;;;3.32;81.70;97028.41;5018015;28;20480;-77
2024/03/24 02:40:49;;;;;;;2.50;2.30;;;4.50;78.50;;;3.33;81.86;97032.72;5009691;28;20483;-79
2024/03/24 02:43:17;;;;;;;3.20;1.90;;;4.50;78.60;;;3.45;81.86;97037.53;5027431;28;20471;-79
2024/03/24 02:45:43;;;;;;;3.40;2.63;;;4.50;78.50;;;3.38;82.01;97027.63;5006013;28;20480;-78
2024/03/24 02:48:11;;;;;;;2.50;2.13;;;4.50;78.50;;;3.45;81.28;97024.19;5010547;28;20507;-77
2024/03/24 02:50:37;;;;;;;2.13;1.90;;;4.60;78.70;;;3.44;81.75;97014.53;5005092;28;20542;-80
2024/03/24 02:53:05;;;;;;;3.33;2.33;;;4.60;78.60;;;2.87;81.49;96932.56;5020530;28;20986;-76
2024/03/24 02:55:31;;;;;;;2.57;2.37;;;4.50;78.40;;;3.23;81.89;97013.53;5005062;28;20467;-77
2024/03/24 02:58:03;;;;;;;3.30;2.20;;;4.50;78.60;;;3.33;nan;97007.84;5000753;28;20892;-79
2024/03/24 03:00:30;;;;;;;2.60;2.03;;;4.40;78.60;;;3.10;82.01;96967.03;5002376;28;20577;-79
2024/03/24 03:02:57;;;;;;;5.10;2.83;;;4.40;78.70;;;3.49;82.27;97006.75;5002679;28;20475;-79
2024/03/24 03:05:24;;;;;;;5.10;2.50;;;4.50;79.20;;;3.36;85.50;97002.97;5013555;28;20828;-76
2024/03/24 03:07:51;;;;;;;6.27;2.00;;;4.50;80.30;;;3.42;85.28;97001.34;5008581;28;20513;-78
2024/03/24 03:10:17;;;;;;;2.20;2.00;;;4.50;80.50;;;3.39;86.49;96997.22;5030122;28;20476;-79
2024/03/24 03:12:44;;;;;;;3.03;2.27;;;4.40;81.30;;;3.18;86.65;96983.94;5010157;28;20484;-79
2024/03/24 03:15:15;;;;;;;3.60;2.23;;;4.40;81.20;;;3.37;86.95;97003.78;5001748;28;20490;-78
2024/03/24 03:17:43;;;;;;;3.10;2.17;;;4.40;81.60;;;3.25;88.77;96995.47;5001962;28;20516;-79
2024/03/24 03:20:12;;;;;;;6.20;2.27;;;4.40;82.40;;;2.85;91.92;96989.81;5012866;28;21064;-78
2024/03/24 03:22:40;;;;;;;7.20;2.57;;;4.20;83.80;;;2.79;93.07;96992.22;5001074;28;20479;-78
2024/03/24 03:25:11;;;;;;;3.33;3.03;;;4.00;85.30;;;2.83;93.79;96993.50;4999333;28;20471;-76
2024/03/24 03:27:39;;;;;;;3.33;2.60;;;4.00;86.80;;;2.77;95.02;96988.91;5019527;28;20480;-76
2024/03/24 03:30:08;;;;;;;2.30;2.10;;;4.00;87.40;;;2.55;96.30;96991.59;5002782;28;20474;-76
2024/03/24 03:32:40;;;;;;;4.50;2.30;;;3.80;88.70;;;2.43;98.61;96982.44;5017292;28;20474;-77
2024/03/24 03:35:08;;;;;;;5.00;3.43;;;3.70;90.40;;;2.40;99.72;96988.16;4997874;28;21018;-80
2024/03/24 03:37:36;;;;;;;3.33;3.03;;;3.60;91.30;;;2.38;100.00;96982.19;5009160;28;20618;-74
2024/03/24 03:40:02;;;;;;;3.43;2.53;;;3.60;92.20;;;2.06;100.00;96918.47;5003114;28;20488;-80
2024/03/24 03:42:32;;;;;;;2.40;2.20;;;3.60;92.80;;;2.39;100.00;96983.81;5000775;28;20564;-78
2024/03/24 03:44:58;;;;;;;4.10;2.40;;;3.60;92.20;;;2.39;100.00;96986.50;5008423;28;20474;-75
2024/03/24 03:47:28;;;;;;;4.10;2.50;;;3.60;92.10;;;2.29;100.00;96975.28;5030059;28;20694;-73
2024/03/24 03:49:57;;;;;;;6.03;2.27;;;3.50;92.10;;;2.51;100.00;96989.47;5035329;28;20502;-79
2024/03/24 03:52:29;;;;;;;2.57;2.37;;;3.60;92.50;;;2.44;100.00;96984.06;5009630;28;20782;-80
2024/03/24 03:54:57;;;;;;;2.80;2.30;;;3.60;92.20;;;2.34;100.00;96983.53;5024935;28;20475;-77
2024/03/24 03:57:25;;;;;;;2.30;2.10;;;3.60;92.10;;;1.86;100.00;96923.56;5021684;28;20481;-80
2024/03/24 03:59:53;;;;;;;2.40;2.20;;;3.50;92.00;;;1.90;100.00;96927.53;5027934;28;20519;-80
2024/03/24 04:02:21;;;;;;;4.23;2.57;;;3.40;92.20;;;2.12;100.00;96964.88;5019521;28;20494;-75
2024/03/24 04:04:51;;;;;;;3.07;2.50;;;3.40;92.50;;;2.09;100.00;96954.59;5038174;28;20485;-75
2024/03/24 04:07:20;;;;;;;2.33;2.13;;;3.40;92.00;;;2.16;100.00;96968.81;5019571;28;20503;-75
2024/03/24 04:09:46;;;;;;;3.70;3.40;;;3.30;91.40;;;2.15;100.00;96958.34;5016000;28;20518;-81
2024/03/24 04:12:13;;;;;;;2.60;2.37;;;3.40;91.60;;;2.30;98.83;96967.13;5033965;28;20532;-77
2024/03/24 04:14:41;;;;;;;2.73;2.53;;;3.40;91.20;;;2.35;98.87;96955.88;5016384;28;20459;-74
2024/03/24 04:17:09;;;;;;;4.40;2.50;;;3.50;91.10;;;2.32;98.03;96953.59;5046947;28;20513;-77
2024/03/24 04:19:35;;;;;;;3.73;2.40;;;3.50;90.60;;;2.40;98.17;96961.47;5037132;28;20477;-76
2024/03/24 04:22:03;;;;;;;2.63;2.17;;;3.50;90.70;;;2.25;96.91;96958.84;5012549;28;20473;-76
2024/03/24 04:24:31;;;;;;;3.10;2.27;;;3.40;90.30;;;2.17;97.53;96957.13;5044726;28;20481;-74
2024/03/24 04:26:58;;;;;;;3.23;2.40;;;3.40;90.10;;;2.09;98.35;96954.59;5009104;28;20482;-75
2024/03/24 04:29:24;;;;;;;2.23;2.13;;;3.30;90.50;;;1.86;97.64;96896.13;5000488;28;20487;-73
2024/03/24 04:31:52;;;;;;;2.77;2.57;;;3.30;90.70;;;2.29;97.41;96959.31;5003576;28;20492;-78
2024/03/24 04:34:18;;;;;;;1.90;1.80;;;3.30;90.40;;;2.32;97.14;96958.91;5011157;28;20477;-77
2024/03/24 04:36:45;;;;;;;2.63;1.87;;;3.30;90.30;;;2.37;96.80;96965.34;5009791;28;20914;-76
2024/03/24 04:39:12;;;;;;;2.30;2.13;;;3.40;90.40;;;2.32;96.80;96958.91;5003162;28;20479;-76
2024/03/24 04:41:40;;;;;;;2.70;2.50;;;3.40;90.10;;;2.23;97.33;96956.38;5001282;28;20508;-77
2024/03/24 04:44:08;;;;;;;5.80;2.40;;;3.30;90.40;;;2.24;97.57;96955.38;5033926;28;20484;-72
2024/03/24 04:46:35;;;;;;;2.40;2.20;;;3.30;90.70;;;2.18;97.64;96957.97;4999586;28;20491;-77
2024/03/24 04:49:04;;;;;;;2.47;1.90;;;3.20;90.70;;;2.25;97.95;96958.84;5006817;28;20477;-74
2024/03/24 04:51:30;;;;;;;2.50;2.30;;;3.20;90.90;;;2.20;98.07;96953.25;5004625;28;20475;-77
2024/03/24 04:53:57;;;;;;;2.70;2.20;;;3.20;91.20;;;2.06;98.65;96954.97;5008127;28;20525;-78
2024/03/24 04:56:24;;;;;;;2.37;2.07;;;3.20;91.20;;;2.09;99.51;96965.25;5006543;28;20649;-78
2024/03/24 04:58:52;;;;;;;2.10;2.00;;;3.20;91.40;;;2.28;98.39;96962.97;5038190;28;20486;-75
2024/03/24 05:01:18;;;;;;;2.33;2.13;;;3.30;91.40;;;2.27;97.77;96959.47;4999662;28;20514;-76
2024/03/24 05:03:46;;;;;;;2.40;2.20;;;3.30;91.00;;;2.22;98.55;96961.91;5009532;28;20486;-77
2024/03/24 05:06:12;;;;;;;2.70;2.50;;;3.30;91.10;;;2.28;97.35;96970.97;5005439;28;20492;-76
2024/03/24 05:08:42;;;;;;;3.10;2.10;;;3.40;90.70;;;2.05;98.38;96943.47;4998856;28;20469;-72
2024/03/24 05:11:10;;;;;;;2.23;2.03;;;3.40;90.70;;;1.72;97.98;96885.31;5025585;28;20475;-76
2024/03/24 05:13:37;;;;;;;3.00;2.20;;;3.40;90.50;;;2.36;97.30;96973.56;4998965;28;20987;-76
2024/03/24 05:16:08;;;;;;;2.87;1.90;;;3.50;90.40;;;2.04;98.87;96946.31;5034530;28;20998;-77
2024/03/24 05:18:34;;;;;;;3.17;2.10;;;3.40;90.40;;;2.30;98.93;96971.63;5022685;28;20825;-77
2024/03/24 05:21:02;;;;;;;2.00;1.90;;;3.50;90.60;;;2.39;97.97;96978.50;5037859;28;20498;-78
2024/03/24 05:23:28;;;;;;;2.57;2.37;;;3.50;90.50;;;2.33;98.68;96977.41;5002637;28;20541;-77
2024/03/24 05:25:56;;;;;;;2.63;2.43;;;3.50;90.80;;;2.37;99.38;96983.19;5004937;28;20476;-76
2024/03/24 05:28:22;;;;;;;2.30;2.20;;;3.50;91.00;;;2.46;98.24;96984.72;5004713;28;20484;-76
2024/03/24 05:30:51;;;;;;;2.70;2.50;;;3.50;90.90;;;2.22;99.10;96964.56;4999810;28;20472;-74
2024/03/24 05:33:19;;;;;;;2.73;2.50;;;3.40;91.20;;;2.21;98.90;96963.75;5036507;28;20475;-75
2024/03/24 05:35:47;;;;;;;2.60;2.40;;;3.40;91.20;;;2.30;99.24;96976.94;5021217;28;20476;-77
2024/03/24 05:38:13;;;;;;;3.10;2.80;;;3.40;91.30;;;2.28;100.00;96979.81;5038306;28;20490;-77
2024/03/24 05:40:40;;;;;;;2.83;2.57;;;3.40;91.50;;;2.28;100.00;96976.31;4999530;28;20918;-75
2024/03/24 05:43:08;;;;;;;2.80;2.60;;;3.40;91.80;;;2.26;100.00;96974.66;4997169;28;20483;-75
2024/03/24 05:45:35;;;;;;;2.60;2.40;;;3.50;91.60;;;2.35;100.00;96974.53;5009929;28;20490;-79
2024/03/24 05:48:03;;;;;;;2.47;2.20;;;3.50;91.70;;;1.98;98.72;96884.78;5035864;28;20475;-78
2024/03/24 05:50:31;;;;;;;2.73;2.40;;;3.60;91.70;;;2.50;99.63;96982.50;4991468;28;20486;-76
2024/03/24 05:52:57;;;;;;;3.30;3.00;;;3.60;91.50;;;2.50;99.09;96987.84;5004412;28;20558;-76
2024/03/24 05:55:25;;;;;;;2.63;2.43;;;3.60;91.30;;;2.51;98.25;96985.00;5008541;28;20549;-77
2024/03/24 05:57:51;;;;;;;2.80;2.47;;;3.60;91.00;;;2.37;99.14;96977.88;5009004;28;20527;-78
2024/03/24 06:00:19;;;;;;;2.40;2.20;;;3.50;90.80;;;2.35;97.95;96978.03;5022600;28;20486;-75
2024/03/24 06:02:45;;;;;;;2.53;2.20;;;3.50;90.60;;;2.46;97.98;96987.38;4995055;28;20887;-76
2024/03/24 06:05:15;;;;;;;2.67;2.30;;;3.50;90.50;;;2.66;97.43;96981.44;5002056;28;21219;-78
2024/03/24 06:07:42;;;;;;;2.83;2.60;;;3.70;90.70;;;2.86;94.36;96984.28;5027096;28;20475;-79
2024/03/24 06:10:11;;;;;;;2.43;2.27;;;3.90;89.30;;;3.13;91.90;96981.84;5013517;28;20494;-76
2024/03/24 06:12:37;;;;;;;2.83;2.10;;;4.10;87.60;;;3.25;91.31;96976.78;5027879;28;20993;-72
2024/03/24 06:15:06;;;;;;;3.00;2.80;;;4.20;85.90;;;3.32;90.73;96974.16;5031054;28;20477;-75
2024/03/24 06:17:32;;;;;;;2.80;2.20;;;4.40;85.30;;;3.31;90.70;96978.69;5000181;28;20481;-77
2024/03/24 06:19:59;;;;;;;2.70;2.20;;;4.40;84.80;;;3.48;89.62;96973.84;5003117;28;20475;-76
2024/03/24 06:22:25;;;;;;;3.17;2.37;;;4.50;84.50;;;3.53;87.01;96970.59;4992249;28;20885;-75
2024/03/24 06:24:54;;;;;;;3.97;1.80;;;4.60;83.40;;;3.43;87.91;96976.28;5029830;28;21611;-81
2024/03/24 06:27:20;;;;;;;2.93;2.63;;;4.50;82.70;;;3.57;88.77;96966.53;5026090;28;20469;-81
2024/03/24 06:29:47;;;;;;;2.70;2.47;;;4.60;83.50;;;3.36;88.78;96949.56;5002409;28;20491;-80
2024/03/24 06:32:13;;;;;;;2.00;1.90;;;4.60;83.30;;;3.69;86.25;96966.81;5013332;28;20926;-79
2024/03/24 06:34:40;;;;;;;2.57;2.37;;;4.70;82.60;;;3.37;86.17;96931.69;5004760;28;20480;-78
2024/03/24 06:37:07;;;;;;;2.63;2.43;;;4.70;82.40;;;3.85;86.44;96968.31;5005553;28;20564;-80
2024/03/24 06:39:36;;;;;;;4.10;2.60;;;4.80;82.40;;;3.84;84.78;96966.66;5002513;28;20479;-75
2024/03/24 06:42:08;;;;;;;2.47;2.27;;;4.90;81.70;;;3.92;87.27;96976.34;5000037;28;20476;-79
2024/03/24 06:44:37;;;;;;;2.20;2.00;;;4.90;82.60;;;4.20;89.60;96965.59;4996362;28;20865;-76
2024/03/24 06:47:04;;;;;;;3.03;2.03;;;5.10;83.70;;;4.29;85.57;96968.06;5014825;28;20471;-77
2024/03/24 06:49:33;;;;;;;2.60;2.40;;;5.30;82.60;;;4.65;85.77;96961.59;5007481;28;20483;-77
2024/03/24 06:51:59;;;;;;;2.10;1.90;;;5.50;82.90;;;4.50;81.99;96964.44;5002043;28;20989;-77
2024/03/24 06:54:27;;;;;;;2.40;2.20;;;5.50;80.60;;;4.57;83.24;96964.44;5001245;28;20507;-78
2024/03/24 06:56:53;;;;;;;2.23;2.00;;;5.60;81.20;;;4.42;82.81;96968.13;4996983;28;20480;-77
2024/03/24 06:59:25;;;;;;;3.30;1.90;;;5.50;80.50;;;4.66;81.57;96960.56;5004740;28;20514;-79
2024/03/24 07:01:51;;;;;;;1.90;1.80;;;5.60;80.40;;;4.97;79.21;96964.50;5011824;28;20483;-79
2024/03/24 07:04:18;;;;;;;1.93;1.83;;;6.00;79.30;;;5.29;78.27;96969.22;5023245;28;20521;-70
2024/03/24 07:06:45;;;;;;;2.90;2.00;;;6.20;79.20;;;5.17;77.77;96967.19;5011239;28;21268;-71
2024/03/24 07:09:12;;;;;;;2.23;1.80;;;6.30;78.60;;;5.01;78.52;96964.94;4999006;28;20478;-70
2024/03/24 07:11:39;;;;;;;2.67;2.07;;;6.10;78.20;;;5.04;78.17;96976.03;5004131;28;20621;-70
2024/03/24 07:14:06;;;;;;;1.90;1.70;;;6.10;78.30;;;5.14;78.17;96964.91;4997983;28;20480;-70
2024/03/24 07:16:34;;;;;;;2.70;1.87;;;6.20;78.60;;;5.33;78.38;96979.31;5021369;28;20501;-70
2024/03/24 07:19:02;;;;;;;2.03;1.93;;;6.30;78.30;;;5.17;77.77;96980.59;5007811;28;20567;-71
2024/03/24 07:21:28;;;;;;;1.97;1.83;;;6.30;77.80;;;4.61;77.97;96971.03;5017445;28;20878;-70
2024/03/24 07:23:56;;;;;;;2.50;2.30;;;5.90;76.90;;;4.65;79.75;96972.31;5004833;28;20537;-73
2024/03/24 07:26:23;;;;;;;1.60;1.50;;;5.80;78.20;;;4.49;77.94;96984.19;5009113;28;20479;-70
2024/03/24 07:28:50;;;;;;;3.53;1.50;;;5.60;77.00;;;4.46;78.42;96979.25;5007714;28;20480;-71
2024/03/24 07:31:18;;;;;;;1.60;1.50;;;5.60;77.60;;;4.09;78.82;96979.53;4994858;28;20484;-72
2024/03/24 07:33:47;;;;;;;1.33;1.23;;;5.30;77.00;;;3.72;79.63;96912.16;5001239;28;20968;-71
2024/03/24 07:36:14;;;;;;;1.90;1.50;;;5.30;77.80;;;4.33;80.67;96985.38;5002930;28;20469;-69
2024/03/24 07:38:42;;;;;;;2.10;1.70;;;5.40;78.40;;;4.59;79.12;96983.78;5020026;28;20475;-71
2024/03/24 07:41:11;;;;;;;1.60;1.50;;;5.60;78.30;;;5.09;75.72;96978.09;5036663;28;20478;-71
2024/03/24 07:43:39;;;;;;;1.87;1.77;;;6.00;77.20;;;4.99;74.99;96985.69;4995028;28;20491;-70
2024/03/24 07:46:08;;;;;;;2.30;2.13;;;6.20;76.00;;;5.29;75.79;96978.09;5018127;28;20837;-71
2024/03/24 07:48:35;;;;;;;2.50;1.50;;;6.20;76.40;;;5.21;74.67;96968.41;5004466;28;20556;-71
2024/03/24 07:51:05;;;;;;;2.00;1.80;;;6.40;75.60;;;5.30;73.71;96973.53;5005516;28;20599;-71
2024/03/24 07:53:32;;;;;;;1.23;1.13;;;6.40;75.30;;;5.15;72.79;96971.09;4991760;28;21279;-71
2024/03/24 07:55:59;;;;;;;1.53;1.40;;;6.30;74.80;;;5.10;73.21;96975.22;5029444;28;20495;-71
2024/03/24 07:58:30;;;;;;;1.10;1.10;;;6.30;74.60;;;4.95;70.67;96966.56;5027210;28;20491;-71
2024/03/24 08:00:56;;;;;;;1.07;0.97;;;6.20;72.70;;;5.22;69.16;96966.53;5005706;28;20478;-71
2024/03/24 08:03:24;;;;;;;1.30;1.20;;;6.30;72.30;;;5.39;68.06;96983.88;5024630;28;20532;-69
2024/03/24 08:05:51;;;;;;;1.87;1.50;;;6.50;71.00;;;5.57;68.13;96978.88;5013748;28;20482;-71
2024/03/24 08:08:21;;;;;;;2.63;1.57;;;6.60;70.90;;;5.43;66.42;96983.44;5011479;28;20475;-74
2024/03/24 08:10:48;;;;;;;1.60;1.40;;;6.60;69.90;;;5.33;66.75;96983.88;5027502;28;20647;-72
2024/03/24 08:13:15;;;;;;;1.53;1.43;;;6.40;69.70;;;5.06;66.81;96899.00;5007728;28;20993;-70
2024/03/24 08:15:41;;;;;;;4.13;1.30;;;6.50;69.90;;;5.27;66.75;96982.84;5009933;28;20474;-71
2024/03/24 08:18:10;;;;;;;1.87;1.57;;;6.40;69.40;;;5.34;66.30;96983.66;5005561;28;20551;-72
2024/03/24 08:20:36;;;;;;;2.63;0.90;;;6.30;69.30;;;5.16;65.17;96983.44;4998734;28;20534;-72
2024/03/24 08:23:04;;;;;;;1.50;1.37;;;6.30;68.10;;;5.36;65.66;96973.53;4999968;28;20485;-71
2024/03/24 08:25:36;;;;;;;2.10;1.80;;;6.30;68.30;;;5.72;64.40;96965.25;4993764;28;21380;-69
2024/03/24 08:28:04;;;;;;;1.77;1.43;;;6.60;67.80;;;5.99;62.81;96954.44;5033966;28;20484;-71
2024/03/24 08:30:32;;;;;;;1.97;1.43;;;6.90;67.40;;;6.04;62.91;96968.06;5013607;28;20498;-70
2024/03/24 08:33:00;;;;;;;1.13;1.00;;;7.00;66.70;;;5.90;60.02;96965.41;5004236;28;20501;-70
2024/03/24 08:35:28;;;;;;;2.53;1.30;;;7.10;64.10;;;6.12;61.31;96983.91;5010139;28;20482;-69
2024/03/24 08:37:59;;;;;;;1.10;1.00;;;7.10;64.80;;;5.76;61.29;96982.56;4988697;28;21063;-69
2024/03/24 08:40:26;;;;;;;1.40;1.30;;;7.00;64.30;;;5.65;61.67;96976.00;5007953;28;20486;-70
2024/03/24 08:42:57;;;;;;;3.17;1.73;;;6.80;64.20;;;5.63;61.32;96970.81;4996067;28;20478;-72
2024/03/24 08:45:24;;;;;;;1.80;1.70;;;6.70;64.00;;;5.72;62.50;96970.63;4999619;28;21329;-70
2024/03/24 08:47:53;;;;;;;2.13;1.30;;;6.70;64.90;;;5.87;62.78;96976.56;5016620;28;20476;-72
2024/03/24 08:50:21;;;;;;;4.70;2.30;;;6.80;65.30;;;6.10;62.18;96980.63;5004455;28;21021;-70
2024/03/24 08:52:49;;;;;;;2.50;1.90;;;7.00;65.40;;;6.04;61.86;96973.44;5013118;28;20494;-70
2024/03/24 08:55:17;;;;;;;3.50;1.80;;;7.00;64.40;;;6.02;60.83;96968.28;4994104;28;20481;-70
2024/03/24 08:57:44;;;;;;;1.83;1.73;;;7.10;63.90;;;5.85;61.51;96975.94;5001877;28;20485;-71
2024/03/24 09:00:15;;;;;;;1.73;1.63;;;7.00;63.80;;;5.79;61.66;96976.78;5024399;28;20492;-71
2024/03/24 09:02:43;;;;;;;3.13;2.00;;;6.90;63.70;;;5.85;61.55;96980.47;4998711;28;21032;-72
2024/03/24 09:05:10;;;;;;;3.20;1.70;;;6.90;63.60;;;5.94;60.87;96957.78;4995298;28;20581;-71
2024/03/24 09:07:37;;;;;;;2.37;2.17;;;7.00;63.70;;;6.08;61.21;96958.56;5003584;28;20502;-71
2024/03/24 09:10:05;;;;;;;1.93;1.77;;;7.10;64.10;;;6.20;60.31;96959.53;5016000;28;20477;-70
2024/03/24 09:12:32;;;;;;;3.10;2.17;;;7.20;63.80;;;6.31;60.94;96967.97;5014481;28;20843;-72
2024/03/24 09:14:59;;;;;;;1.83;1.60;;;7.20;64.00;;;6.06;60.97;96899.75;4991568;28;20547;-73
2024/03/24 09:17:28;;;;;;;3.10;2.20;;;7.40;64.20;;;6.23;61.14;96961.78;5001087;28;20913;-70
2024/03/24 09:19:54;;;;;;;5.17;2.43;;;7.20;64.00;;;6.26;60.14;96965.09;5010356;28;21006;-72
2024/03/24 09:22:25;;;;;;;2.60;2.40;;;7.30;63.30;;;6.02;61.07;96964.78;4996128;28;20482;-72
2024/03/24 09:24:55;;;;;;;1.67;1.57;;;7.10;63.50;;;6.02;61.89;96954.06;5010661;28;20534;-73
2024/03/24 09:27:22;;;;;;;3.83;2.20;;;7.00;63.80;;;6.10;61.91;96961.84;4989387;28;20611;-74
2024/03/24 09:29:48;;;;;;;3.40;2.80;;;7.00;64.20;;;6.06;61.47;96953.41;5009618;28;20813;-71
2024/03/24 09:32:16;;;;;;;3.50;2.40;;;7.00;64.00;;;5.93;62.63;96962.28;4991916;28;20602;-71
2024/03/24 09:34:44;;;;;;;2.83;2.17;;;6.90;64.00;;;6.08;62.21;96956.72;5011434;28;20860;-71
2024/03/24 09:37:12;;;;;;;2.63;1.70;;;7.00;64.40;;;5.94;62.13;96955.91;4992252;28;20990;-72
2024/03/24 09:39:40;;;;;;;2.93;2.33;;;6.90;64.00;;;5.81;63.17;96956.78;4993455;28;20994;-71
2024/03/24 09:42:12;;;;;;;3.17;2.87;;;6.90;64.60;;;5.37;63.72;96889.47;5000438;28;20475;-70
2024/03/24 09:44:40;;;;;;;3.53;2.90;;;6.80;64.70;;;5.74;64.76;96971.22;4997354;28;20484;-70
2024/03/24 09:47:09;;;;;;;4.37;2.73;;;6.80;65.40;;;5.75;66.35;96956.78;5001306;28;20853;-71
2024/03/24 09:49:39;;;;;;;3.20;3.00;;;6.70;66.90;;;5.81;66.42;96969.34;5021063;28;20880;-71
2024/03/24 09:52:10;;;;;;;3.70;2.80;;;6.70;66.80;;;5.92;66.02;96957.16;5018462;28;20545;-75
2024/03/24 09:54:36;;;;;;;3.13;2.83;;;6.80;67.00;;;6.02;66.17;96964.78;5010267;28;20530;-72
2024/03/24 09:57:04;;;;;;;3.30;2.63;;;6.90;67.40;;;5.87;66.50;96960.47;5015720;28;20471;-72
2024/03/24 09:59:34;;;;;;;3.70;2.30;;;6.90;67.60;;;5.89;66.80;96960.25;5007013;28;20491;-74
2024/03/24 10:02:01;;;;;;;3.10;2.80;;;6.80;67.50;;;6.13;66.28;96971.34;5004293;28;20531;-75
2024/03/24 10:04:28;;;;;;;3.10;2.43;;;7.00;67.80;;;6.08;65.52;96959.41;5016063;28;20498;-74
2024/03/24 10:06:55;;;;;;;4.30;3.00;;;7.00;67.10;;;6.13;65.05;96961.41;5013878;28;20909;-75
2024/03/24 10:09:23;;;;;;;2.43;2.20;;;7.10;66.60;;;6.01;64.61;96963.94;5004247;28;20465;-74
2024/03/24 10:11:51;;;;;;;4.73;2.60;;;7.10;66.30;;;5.81;65.48;96961.28;5000885;28;20492;-77
2024/03/24 10:14:24;;;;;;;3.73;2.40;;;6.90;66.20;;;5.86;65.98;96958.81;4991975;28;20490;-78
2024/03/24 10:16:52;;;;;;;2.87;2.23;;;6.80;66.60;;;5.58;64.83;96895.63;5001057;28;20468;-83
2024/03/24 10:19:23;;;;;;;2.60;2.40;;;6.90;66.50;;;6.26;65.15;96959.72;5008037;28;20484;-78
2024/03/24 10:21:53;;;;;;;2.43;2.00;;;7.00;66.70;;;6.25;64.16;96950.88;4997688;28;20467;-78
2024/03/24 10:24:20;;;;;;;2.90;2.50;;;7.20;66.40;;;6.21;64.31;96953.13;5011733;28;20478;-81
2024/03/24 10:26:48;;;;;;;5.30;1.93;;;7.20;66.20;;;6.11;65.07;96958.13;5021210;28;20485;-81
2024/03/24 10:29:21;;;;;;;3.43;2.30;;;7.10;66.50;;;5.98;65.68;96900.00;5032212;28;20925;-82
2024/03/24 10:31:49;;;;;;;3.20;2.13;;;7.20;67.00;;;6.16;66.44;96944.09;5005430;28;20484;-83
2024/03/24 10:34:16;;;;;;;4.60;2.43;;;7.20;67.30;;;6.03;67.24;96947.66;5041646;28;20574;-80